VAM | Vabird-VBD

Virtual Vabird! Aerolínea Virtual de habla hispana, desde 2011




 INFORMACIÓN METAR y TAF
METAR FOR LEPA
ADDS - METARS form results

(1929 UTC 03 December 2020)
Data provider http://aviationweather.gov/metar/data/
 
METAR text: LEPA 031900Z 23014KT 9999 FEW020 14/06 Q1006 NOSIG
Conditions at: LEPA (PALMA DE MALLORC, ES) observed 1900 UTC 03 December 2020
Temperature: 14.0°C (57°F)
Dewpoint: 6.0°C (43°F) [RH = 58%]
Pressure (altimeter): 29.70 inches Hg (1006.0 mb)
Winds: from the SW (230 degrees) at 16 MPH (14 knots; 7.2 m/s)
Visibility: 6 or more miles (10+ km)
Ceiling: at least 12,000 feet AGL
Clouds: few clouds at 2000 feet AGL
Weather: no significant weather observed at this time

METAR text: LEPA 031830Z 24012KT 9999 FEW020 14/05 Q1006 NOSIG
Conditions at: LEPA (PALMA DE MALLORC, ES) observed 1830 UTC 03 December 2020
Temperature: 14.0°C (57°F)
Dewpoint: 5.0°C (41°F) [RH = 55%]
Pressure (altimeter): 29.70 inches Hg (1006.0 mb)
Winds: from the WSW (240 degrees) at 14 MPH (12 knots; 6.2 m/s)
Visibility: 6 or more miles (10+ km)
Ceiling: at least 12,000 feet AGL
Clouds: few clouds at 2000 feet AGL
Weather: no significant weather observed at this time

Forecast for: AMD
Text: TAF AMD LEPA 031807Z 0318/0418 23015KT 9999 FEW020 TX16/0412Z TN07/0406Z
Forecast period: 1800 to 2300 UTC 03 December 2020
Forecast type: FROM: standard forecast or significant change
Winds: from the SW (230 degrees) at 17 MPH (15 knots; 7.7 m/s)
Visibility: 6 or more miles (10+ km)
Ceiling: at least 12,000 feet AGL
Clouds: few clouds at 2000 feet AGL
Weather: no significant weather forecast for this period
Text: BECMG 0323/0401 23015G25KT
Forecast period: 2300 UTC 03 December 2020 to 1800 UTC 04 December 2020
Forecast type: BECOMING: Conditions expected to become as follows by 0100 UTC 04 December 2020
Winds: from the SW (230 degrees) at 17 MPH (15 knots; 7.7 m/s)
gusting to 29 MPH (25 knots; 12.9 m/s)
Visibility: 6 or more miles (10+ km)
Ceiling: at least 12,000 feet AGL
Clouds: few clouds at 2000 feet AGL
Weather: no significant weather forecast for this period
Text: PROB40
Forecast period: 0100 to 1700 UTC 04 December 2020
Forecast type: TEMPORARY: The following changes expected for less than half the time period
Winds: from the WSW (250 degrees) at 23 MPH (20 knots; 10.3 m/s)
gusting to 34 MPH (30 knots; 15.4 m/s)
Visibility: missing
Ceiling: unknown
Clouds: missing
Weather: no significant weather forecast for this period

 MAPA DE AEROPUERTO

 INFORMACIÓN DE PISTA